Tuntum, Brazil
Current Conditions -  °F | °C
As of 8:00 AM on Tuesday 21 Oct 2014 (Local Time) from SBTE Reporting Station
Scattered Clouds Scattered Clouds  
Wind Chill: 81°   Ceiling: Unl
Heat Index: 85°   Visibility: 6mi
Dew Point: 73°   Wind: 5mph
Humidity: 79%   Direction: 340°NNW
Pressure: 29.88"   Gusts: NA
Location:  5.26°S, 44.65°W
Report Text: SBTE 211100Z 34004KT 9999 FEW018 SCT080 27/23 Q1012
Loading
Personal Weather Stations






























Interactive Weather Map
Tropical Storm Tracking
New forecast layout! Learn more

10-Day Weather Forecast

Advertisements
Track Severe Weather on mobile